Time;durP1;ratioP1;P1;durP2;ratioP2;P2;SDS_P1;SDS_P2;PMS_P1;PMS_P2;Temp;Humidity;BMP_temperature;BMP_pressure;BME280_temperature;BME280_humidity;BME280_pressure;Samples;Min_cycle;Max_cycle;Signal;HPM_P1;HPM_P2
2021/06/06 00:01:56;;;;;;;9.57;9.10;;;23.90;93.00;;;;;;3639340;39;20478;-65
2021/06/06 00:04:24;;;;;;;8.77;8.40;;;23.90;92.90;;;;;;3629755;39;20466;-66
2021/06/06 00:06:50;;;;;;;9.80;8.90;;;23.90;92.90;;;;;;3638691;39;20539;-66
2021/06/06 00:09:20;;;;;;;9.30;8.80;;;23.90;92.90;;;;;;3638732;39;20503;-66
2021/06/06 00:11:50;;;;;;;9.53;9.13;;;23.90;92.90;;;;;;3639542;39;20478;-65
2021/06/06 00:14:19;;;;;;;9.50;9.00;;;23.90;92.90;;;;;;3639372;39;20500;-65
2021/06/06 00:16:50;;;;;;;9.80;9.30;;;23.90;92.90;;;;;;3639180;39;20831;-65
2021/06/06 00:19:19;;;;;;;9.50;9.00;;;23.90;92.90;;;;;;3629406;39;20536;-65
2021/06/06 00:21:45;;;;;;;9.87;9.47;;;23.90;92.80;;;;;;3639101;39;20819;-66
2021/06/06 00:24:16;;;;;;;9.47;9.07;;;23.90;92.80;;;;;;3625012;39;20482;-66
2021/06/06 00:26:42;;;;;;;9.90;9.33;;;23.90;92.80;;;;;;3628950;39;20723;-66
2021/06/06 00:29:09;;;;;;;10.23;9.73;;;23.90;92.80;;;;;;3628247;39;21312;-66
2021/06/06 00:31:37;;;;;;;9.80;9.40;;;23.90;92.80;;;;;;3618744;39;20459;-66
2021/06/06 00:34:05;;;;;;;9.93;9.47;;;23.90;92.80;;;;;;3618358;39;20925;-65
2021/06/06 00:36:33;;;;;;;11.50;10.73;;;23.90;92.80;;;;;;3628160;39;20679;-66
2021/06/06 00:39:00;;;;;;;10.27;9.67;;;23.90;92.80;;;;;;3627385;39;20462;-66
2021/06/06 00:41:29;;;;;;;11.17;10.57;;;23.90;92.70;;;;;;3618755;39;20482;-66
2021/06/06 00:43:59;;;;;;;10.60;10.10;;;23.90;93.10;;;;;;3609854;39;20544;-65
2021/06/06 00:46:28;;;;;;;10.27;9.77;;;23.90;92.70;;;;;;3618350;39;20578;-66
2021/06/06 00:48:55;;;;;;;11.90;11.20;;;23.90;92.70;;;;;;3628407;39;20856;-66
2021/06/06 00:51:31;;;;;;;10.10;9.60;;;23.90;92.70;;;;;;3627721;39;20901;-66
2021/06/06 00:54:07;;;;;;;11.63;10.97;;;23.90;92.70;;;;;;3628708;39;20557;-66
2021/06/06 00:56:34;;;;;;;10.83;10.33;;;23.90;92.70;;;;;;3628230;39;20518;-66
2021/06/06 00:59:02;;;;;;;11.43;10.83;;;23.90;92.70;;;;;;3618705;39;20567;-65
2021/06/06 01:01:33;;;;;;;11.97;11.37;;;23.90;92.70;;;;;;3628201;39;20466;-66
2021/06/06 01:04:01;;;;;;;11.30;10.70;;;23.90;92.70;;;;;;3628010;39;20498;-65
2021/06/06 01:06:34;;;;;;;11.40;10.80;;;23.90;92.60;;;;;;3617730;39;20567;-66
2021/06/06 01:09:03;;;;;;;12.20;11.50;;;23.90;92.60;;;;;;3618279;39;20466;-66
2021/06/06 01:11:38;;;;;;;11.57;10.97;;;23.90;92.60;;;;;;3619446;39;20739;-65
2021/06/06 01:14:09;;;;;;;12.43;11.73;;;23.90;92.60;;;;;;3628422;39;20467;-66
2021/06/06 01:16:42;;;;;;;12.47;11.77;;;23.90;92.60;;;;;;3619235;39;20497;-66
2021/06/06 01:19:19;;;;;;;12.90;12.10;;;23.90;92.60;;;;;;3618341;39;20486;-66
2021/06/06 01:22:04;;;;;;;11.13;10.60;;;24.00;92.60;;;;;;3619339;39;20502;-66
2021/06/06 01:24:39;;;;;;;12.40;11.70;;;23.90;92.60;;;;;;3618187;39;20469;-66
2021/06/06 01:27:09;;;;;;;12.20;11.50;;;23.90;92.50;;;;;;3618523;39;20942;-66
2021/06/06 01:29:49;;;;;;;13.40;12.50;;;23.90;92.50;;;;;;3628282;39;20969;-66
2021/06/06 01:32:22;;;;;;;13.03;12.30;;;23.90;92.50;;;;;;3627921;39;20490;-65
2021/06/06 01:34:54;;;;;;;12.70;11.90;;;23.90;92.50;;;;;;3618614;39;20502;-65
2021/06/06 01:37:25;;;;;;;12.10;11.40;;;23.90;92.50;;;;;;3628074;39;20996;-66
2021/06/06 01:39:57;;;;;;;12.90;12.20;;;23.90;92.50;;;;;;3617876;39;20481;-66
2021/06/06 01:42:28;;;;;;;13.17;12.43;;;23.90;92.80;;;;;;3619164;39;20470;-66
2021/06/06 01:45:00;;;;;;;13.60;12.80;;;24.00;92.50;;;;;;3619060;39;20498;-66
2021/06/06 01:47:29;;;;;;;12.97;12.13;;;23.90;92.40;;;;;;3620466;39;20746;-66
2021/06/06 01:49:59;;;;;;;12.83;12.13;;;23.90;92.40;;;;;;3620121;39;20478;-66
2021/06/06 01:52:33;;;;;;;14.30;13.40;;;23.90;92.40;;;;;;3620212;39;20490;-65
2021/06/06 01:55:10;;;;;;;12.70;12.00;;;23.90;92.40;;;;;;3612020;39;20474;-65
2021/06/06 01:57:45;;;;;;;13.60;12.80;;;23.90;92.40;;;;;;3620603;39;20679;-66
2021/06/06 02:00:23;;;;;;;14.30;13.40;;;23.90;92.40;;;;;;3619675;39;20482;-66
2021/06/06 02:03:09;;;;;;;13.77;12.87;;;23.90;92.30;;;;;;3629440;39;20466;-66
2021/06/06 02:05:36;;;;;;;14.33;13.40;;;24.00;92.40;;;;;;3628306;39;20466;-66
2021/06/06 02:08:06;;;;;;;13.87;13.07;;;24.00;92.40;;;;;;3630023;39;20486;-66
2021/06/06 02:10:40;;;;;;;13.60;12.80;;;24.00;92.40;;;;;;3620156;39;20486;-66
2021/06/06 02:13:11;;;;;;;13.90;13.10;;;24.00;92.40;;;;;;3619348;39;20472;-66
2021/06/06 02:15:40;;;;;;;13.40;12.70;;;23.90;92.30;;;;;;3629099;39;20467;-65
2021/06/06 02:18:13;;;;;;;14.88;13.98;;;24.00;92.30;;;;;;3619319;39;21122;-65
2021/06/06 02:20:42;;;;;;;13.40;12.60;;;24.00;92.30;;;;;;3628685;39;20255;-66
2021/06/06 02:23:10;;;;;;;14.10;13.17;;;24.00;92.30;;;;;;3619172;39;20486;-66
2021/06/06 02:25:42;;;;;;;14.00;13.20;;;24.00;92.30;;;;;;3611387;39;20482;-66
2021/06/06 02:28:22;;;;;;;13.20;12.50;;;24.00;92.30;;;;;;3619419;39;20490;-66
2021/06/06 02:30:54;;;;;;;13.43;12.73;;;24.00;92.30;;;;;;3628190;39;20471;-65
2021/06/06 02:33:31;;;;;;;13.67;12.87;;;24.00;92.30;;;;;;3619153;39;20474;-65
2021/06/06 02:36:06;;;;;;;13.50;12.70;;;23.90;92.20;;;;;;3628828;39;20749;-66
2021/06/06 02:38:40;;;;;;;13.77;12.97;;;24.00;92.20;;;;;;3619687;39;20702;-66
2021/06/06 02:41:15;;;;;;;13.73;12.87;;;24.00;92.20;;;;;;3610755;39;20474;-65
2021/06/06 02:44:03;;;;;;;14.53;13.57;;;24.00;92.20;;;;;;3619206;39;20478;-65
2021/06/06 02:46:35;;;;;;;14.17;13.37;;;24.00;92.20;;;;;;3628638;39;20582;-66
2021/06/06 02:49:07;;;;;;;13.67;12.87;;;24.00;92.20;;;;;;3619077;39;20462;-66
2021/06/06 02:51:41;;;;;;;13.97;13.20;;;24.00;92.20;;;;;;3630045;39;20482;-66
2021/06/06 02:54:14;;;;;;;13.87;13.07;;;24.00;92.20;;;;;;3620011;39;20481;-66
2021/06/06 02:56:47;;;;;;;14.07;13.27;;;24.00;92.10;;;;;;3619630;39;20467;-66
2021/06/06 02:59:19;;;;;;;14.50;13.40;;;24.00;92.10;;;;;;3619132;39;20477;-65
2021/06/06 03:01:52;;;;;;;13.83;13.10;;;24.00;92.10;;;;;;3610983;39;20459;-65
2021/06/06 03:04:27;;;;;;;14.47;13.57;;;24.00;92.50;;;;;;3620115;39;20459;-66
2021/06/06 03:07:01;;;;;;;13.80;13.00;;;24.00;92.10;;;;;;3628930;39;20490;-66
2021/06/06 03:09:29;;;;;;;14.33;13.53;;;24.00;92.10;;;;;;3618472;39;20489;-66
2021/06/06 03:12:05;;;;;;;14.57;13.60;;;24.00;92.10;;;;;;3627884;39;20600;-66
2021/06/06 03:14:41;;;;;;;14.87;13.93;;;24.00;92.10;;;;;;3619125;39;20698;-65
2021/06/06 03:17:20;;;;;;;14.10;13.20;;;24.00;92.10;;;;;;3628850;39;20888;-65
2021/06/06 03:19:51;;;;;;;15.13;14.23;;;24.00;92.10;;;;;;3618936;39;20494;-66
2021/06/06 03:22:21;;;;;;;14.27;13.37;;;24.00;92.10;;;;;;3618965;39;20521;-65
2021/06/06 03:24:54;;;;;;;14.10;13.23;;;24.00;92.10;;;;;;3628863;39;20482;-66
2021/06/06 03:27:27;;;;;;;14.80;13.90;;;24.00;92.00;;;;;;3619521;39;20459;-65
2021/06/06 03:30:02;;;;;;;14.10;13.30;;;24.00;92.00;;;;;;3619469;39;20552;-66
2021/06/06 03:32:36;;;;;;;14.23;13.43;;;23.90;92.00;;;;;;3619682;39;20474;-66
2021/06/06 03:35:06;;;;;;;15.40;14.50;;;23.90;91.90;;;;;;3619871;39;20467;-65
2021/06/06 03:37:35;;;;;;;14.63;13.73;;;24.00;92.00;;;;;;3620141;39;20587;-65
2021/06/06 03:40:18;;;;;;;15.37;14.37;;;23.90;91.90;;;;;;3619018;39;20486;-66
2021/06/06 03:42:53;;;;;;;15.40;14.50;;;24.00;92.00;;;;;;3627992;39;20482;-66
2021/06/06 03:45:20;;;;;;;14.50;13.70;;;24.00;91.90;;;;;;3628038;39;20849;-66
2021/06/06 03:47:47;;;;;;;14.63;13.83;;;24.00;91.90;;;;;;3619431;39;20474;-65
2021/06/06 03:50:16;;;;;;;13.97;13.20;;;24.00;91.90;;;;;;3619611;39;20470;-66
2021/06/06 03:52:48;;;;;;;14.20;13.50;;;24.00;91.90;;;;;;3628569;39;20494;-66
2021/06/06 03:55:18;;;;;;;14.53;13.73;;;23.90;91.90;;;;;;3629059;39;20710;-66
2021/06/06 03:57:53;;;;;;;14.57;13.73;;;24.00;91.90;;;;;;3629146;39;20963;-65
2021/06/06 04:00:24;;;;;;;15.07;14.27;;;24.00;91.90;;;;;;3619306;39;20515;-65
2021/06/06 04:02:57;;;;;;;14.87;14.07;;;24.00;91.90;;;;;;3628909;39;20475;-66
2021/06/06 04:05:29;;;;;;;15.10;14.20;;;23.90;91.80;;;;;;3628869;39;20474;-66
2021/06/06 04:07:56;;;;;;;13.67;12.90;;;24.00;91.90;;;;;;3627891;39;20482;-65
2021/06/06 04:10:25;;;;;;;13.83;13.13;;;24.00;91.80;;;;;;3619106;39;20490;-66
2021/06/06 04:12:54;;;;;;;13.63;12.93;;;24.00;91.80;;;;;;3629130;39;20563;-65
2021/06/06 04:15:22;;;;;;;13.90;13.03;;;24.00;91.80;;;;;;3619549;39;20470;-65
2021/06/06 04:17:49;;;;;;;14.73;13.83;;;24.00;91.80;;;;;;3627543;39;20485;-66
2021/06/06 04:20:17;;;;;;;14.40;13.60;;;24.00;91.80;;;;;;3627735;39;20485;-65
2021/06/06 04:22:45;;;;;;;14.20;13.30;;;24.00;91.80;;;;;;3619300;39;20827;-65
2021/06/06 04:25:14;;;;;;;14.90;14.00;;;24.00;91.80;;;;;;3618733;39;20559;-66
2021/06/06 04:27:43;;;;;;;15.20;14.30;;;24.00;91.70;;;;;;3628280;39;20467;-66
2021/06/06 04:30:13;;;;;;;15.10;14.20;;;24.00;91.70;;;;;;3618928;39;20475;-66
2021/06/06 04:32:41;;;;;;;15.03;14.17;;;24.00;91.70;;;;;;3628323;39;20592;-66
2021/06/06 04:35:10;;;;;;;15.33;14.33;;;24.00;91.70;;;;;;3628583;39;20474;-66
2021/06/06 04:37:38;;;;;;;14.67;13.80;;;23.90;91.70;;;;;;3610221;39;20514;-65
2021/06/06 04:40:11;;;;;;;13.83;13.03;;;24.00;91.70;;;;;;3627283;39;20481;-66
2021/06/06 04:42:39;;;;;;;14.27;13.47;;;24.00;91.70;;;;;;3627542;39;20510;-65
2021/06/06 04:45:13;;;;;;;15.33;14.37;;;24.00;91.70;;;;;;3616038;39;20556;-66
2021/06/06 04:47:41;;;;;;;14.30;13.50;;;23.90;91.60;;;;;;3615626;39;20503;-65
2021/06/06 04:50:11;;;;;;;15.30;14.40;;;23.90;91.60;;;;;;3616522;39;20482;-66
2021/06/06 04:52:38;;;;;;;13.90;13.17;;;24.00;91.60;;;;;;3617363;39;20513;-66
2021/06/06 04:55:11;;;;;;;14.23;13.43;;;24.00;91.60;;;;;;3617980;39;20464;-66
2021/06/06 04:57:39;;;;;;;14.00;13.20;;;24.00;91.60;;;;;;3616183;39;20474;-66
2021/06/06 05:00:10;;;;;;;15.17;14.37;;;24.00;91.60;;;;;;3608967;39;20498;-66
2021/06/06 05:02:39;;;;;;;15.33;14.53;;;24.00;91.60;;;;;;3617675;39;20801;-66
2021/06/06 05:05:09;;;;;;;15.00;14.17;;;24.00;91.60;;;;;;3617743;39;20556;-65
2021/06/06 05:07:37;;;;;;;13.80;13.00;;;24.00;91.60;;;;;;3617015;39;20519;-66
2021/06/06 05:10:06;;;;;;;14.63;13.77;;;24.00;91.60;;;;;;3618184;39;20475;-65
2021/06/06 05:12:34;;;;;;;14.43;13.53;;;24.00;91.50;;;;;;3608000;39;20551;-66
2021/06/06 05:15:02;;;;;;;14.07;13.27;;;24.00;91.50;;;;;;3616602;39;20483;-65
2021/06/06 05:17:29;;;;;;;14.30;13.50;;;24.00;91.50;;;;;;3617789;39;20681;-65
2021/06/06 05:19:58;;;;;;;13.10;12.50;;;24.00;91.50;;;;;;3616628;39;20475;-66
2021/06/06 05:22:25;;;;;;;14.67;13.77;;;24.00;91.50;;;;;;3619601;39;20491;-65
2021/06/06 05:24:53;;;;;;;14.27;13.40;;;23.90;91.40;;;;;;3617653;39;20486;-65
2021/06/06 05:27:23;;;;;;;14.70;13.90;;;24.00;91.50;;;;;;3617653;39;21064;-66
2021/06/06 05:29:50;;;;;;;14.10;13.30;;;24.00;91.50;;;;;;3618728;39;20478;-66
2021/06/06 05:32:16;;;;;;;13.40;12.63;;;24.00;91.50;;;;;;3618766;39;20467;-65
2021/06/06 05:34:43;;;;;;;13.53;12.73;;;24.00;91.40;;;;;;3618374;39;20498;-65
2021/06/06 05:37:13;;;;;;;13.80;13.00;;;24.00;91.40;;;;;;3619309;39;20479;-66
2021/06/06 05:39:39;;;;;;;13.03;12.33;;;24.00;91.40;;;;;;3618785;39;20483;-66
2021/06/06 05:42:07;;;;;;;13.73;13.03;;;24.00;91.40;;;;;;3618154;39;20526;-66
2021/06/06 05:44:34;;;;;;;14.33;13.53;;;24.00;91.40;;;;;;3618752;39;20498;-66
2021/06/06 05:47:01;;;;;;;14.13;13.33;;;24.00;91.40;;;;;;3627046;39;20482;-65
2021/06/06 05:49:27;;;;;;;13.80;13.10;;;23.90;91.40;;;;;;3626992;39;20478;-65
2021/06/06 05:52:05;;;;;;;14.20;13.40;;;24.00;91.30;;;;;;3628730;39;20485;-65
2021/06/06 05:54:33;;;;;;;14.60;13.70;;;24.00;91.30;;;;;;3628088;39;20526;-66
2021/06/06 05:57:00;;;;;;;14.33;13.53;;;24.00;91.30;;;;;;3628068;39;20474;-66
2021/06/06 05:59:27;;;;;;;14.40;13.60;;;24.00;91.30;;;;;;3628144;39;20485;-65
2021/06/06 06:01:53;;;;;;;14.03;13.23;;;24.00;91.30;;;;;;3628856;39;20482;-65
2021/06/06 06:04:20;;;;;;;14.17;13.40;;;24.00;91.30;;;;;;3618861;39;20794;-66
2021/06/06 06:06:47;;;;;;;14.43;13.67;;;24.00;91.30;;;;;;3626560;39;20490;-66
2021/06/06 06:09:13;;;;;;;15.07;14.23;;;24.00;91.30;;;;;;3626803;39;20504;-65
2021/06/06 06:11:41;;;;;;;13.63;12.93;;;24.00;91.30;;;;;;3628833;39;20522;-66
2021/06/06 06:14:09;;;;;;;14.20;13.40;;;24.00;91.30;;;;;;3618638;39;20826;-66
2021/06/06 06:16:37;;;;;;;14.57;13.67;;;24.00;91.20;;;;;;3627994;39;20491;-66
2021/06/06 06:19:05;;;;;;;13.53;12.83;;;24.00;91.20;;;;;;3627301;39;20474;-65
2021/06/06 06:21:35;;;;;;;13.10;12.30;;;24.00;91.20;;;;;;3626510;39;20482;-66
2021/06/06 06:24:02;;;;;;;13.70;12.83;;;24.00;91.60;;;;;;3627466;39;20490;-66
2021/06/06 06:26:29;;;;;;;13.03;12.33;;;24.00;91.20;;;;;;3627854;39;20574;-66
2021/06/06 06:29:10;;;;;;;14.43;13.53;;;24.00;91.20;;;;;;3627276;39;20907;-66
2021/06/06 06:31:54;;;;;;;13.30;12.60;;;24.00;91.20;;;;;;3626757;39;20488;-66
2021/06/06 06:34:33;;;;;;;13.47;12.77;;;24.00;91.20;;;;;;3618059;39;20490;-66
2021/06/06 06:37:01;;;;;;;12.97;12.27;;;24.00;91.20;;;;;;3627645;39;20494;-65
2021/06/06 06:39:27;;;;;;;14.30;13.40;;;24.00;91.20;;;;;;3627511;39;20490;-65
2021/06/06 06:41:54;;;;;;;13.67;12.90;;;24.00;91.10;;;;;;3627198;39;20518;-65
2021/06/06 06:44:22;;;;;;;14.43;13.70;;;24.00;91.10;;;;;;3626395;39;20474;-66
2021/06/06 06:46:50;;;;;;;13.13;12.40;;;24.00;91.10;;;;;;3618969;39;20471;-66
2021/06/06 06:49:18;;;;;;;13.77;13.07;;;24.00;91.10;;;;;;3626628;39;20474;-66
2021/06/06 06:51:45;;;;;;;13.67;12.97;;;24.00;91.10;;;;;;3618388;39;20506;-66
2021/06/06 06:54:12;;;;;;;13.20;12.43;;;24.00;91.10;;;;;;3627294;39;21105;-66
2021/06/06 06:56:38;;;;;;;12.73;12.03;;;24.00;91.10;;;;;;3627433;39;20482;-65
2021/06/06 06:59:05;;;;;;;13.17;12.47;;;24.00;91.10;;;;;;3626966;39;20714;-66
2021/06/06 07:01:33;;;;;;;13.27;12.57;;;24.00;91.10;;;;;;3626516;39;20490;-66
2021/06/06 07:04:00;;;;;;;13.13;12.53;;;24.00;91.10;;;;;;3627386;39;20471;-65
2021/06/06 07:06:26;;;;;;;14.03;13.33;;;24.00;91.10;;;;;;3627141;39;20478;-66
2021/06/06 07:08:53;;;;;;;13.93;13.13;;;24.00;91.00;;;;;;3626578;39;20489;-66
2021/06/06 07:11:22;;;;;;;13.80;13.07;;;24.00;91.00;;;;;;3626595;39;20470;-65
2021/06/06 07:13:50;;;;;;;12.90;12.07;;;24.00;91.00;;;;;;3627180;39;20474;-66
2021/06/06 07:16:21;;;;;;;12.87;12.17;;;24.00;91.00;;;;;;3628181;39;20467;-66
2021/06/06 07:18:49;;;;;;;12.87;12.27;;;24.00;91.00;;;;;;3627899;39;20703;-65
2021/06/06 07:21:19;;;;;;;13.53;12.83;;;24.00;91.00;;;;;;3627342;39;20481;-66
2021/06/06 07:23:46;;;;;;;12.40;11.80;;;24.00;91.00;;;;;;3627007;39;20877;-65
2021/06/06 07:26:18;;;;;;;12.13;11.53;;;24.00;91.00;;;;;;3626890;39;20485;-66
2021/06/06 07:28:45;;;;;;;12.87;12.17;;;24.00;91.00;;;;;;3626850;39;20462;-66
2021/06/06 07:31:12;;;;;;;12.40;11.70;;;24.00;91.00;;;;;;3626071;39;20471;-66
2021/06/06 07:33:43;;;;;;;12.40;11.80;;;24.00;91.00;;;;;;3626788;39;20491;-66
2021/06/06 07:36:14;;;;;;;12.70;12.00;;;24.00;91.00;;;;;;3626450;39;20522;-66
2021/06/06 07:38:41;;;;;;;13.20;12.47;;;24.00;91.00;;;;;;3625687;39;20482;-66
2021/06/06 07:41:07;;;;;;;11.93;11.33;;;24.00;90.90;;;;;;3616181;39;21005;-66
2021/06/06 07:43:34;;;;;;;12.80;12.20;;;24.00;91.30;;;;;;3626100;39;20566;-66
2021/06/06 07:46:02;;;;;;;12.23;11.57;;;24.00;90.90;;;;;;3625697;39;20490;-66
2021/06/06 07:48:28;;;;;;;12.60;12.00;;;24.00;90.90;;;;;;3624856;39;20575;-66
2021/06/06 07:50:55;;;;;;;12.90;12.20;;;24.00;90.90;;;;;;3625681;39;20477;-65
2021/06/06 07:53:23;;;;;;;13.53;12.83;;;23.90;90.90;;;;;;3627371;39;20491;-66
2021/06/06 07:55:51;;;;;;;11.87;11.27;;;24.00;90.90;;;;;;3626870;39;20478;-66
2021/06/06 07:58:20;;;;;;;12.87;12.07;;;24.00;90.90;;;;;;3624877;39;20482;-66
2021/06/06 08:00:47;;;;;;;11.83;11.17;;;23.90;90.90;;;;;;3625191;39;20466;-66
2021/06/06 08:03:13;;;;;;;11.60;11.00;;;23.90;90.90;;;;;;3615815;39;20474;-66
2021/06/06 08:05:41;;;;;;;12.77;11.57;;;24.00;90.90;;;;;;3625306;39;20479;-66
2021/06/06 08:08:10;;;;;;;12.60;11.90;;;24.00;90.90;;;;;;3626654;39;20493;-66
2021/06/06 08:10:41;;;;;;;12.57;11.57;;;24.00;90.90;;;;;;3625687;39;20466;-66
2021/06/06 08:13:08;;;;;;;11.57;10.97;;;24.00;90.90;;;;;;3624752;39;20492;-65
2021/06/06 08:15:35;;;;;;;12.67;11.87;;;24.00;91.00;;;;;;3625508;39;20458;-66
2021/06/06 08:18:06;;;;;;;12.10;10.83;;;24.00;91.00;;;;;;3625779;39;20532;-65
2021/06/06 08:20:37;;;;;;;12.40;11.00;;;24.00;91.10;;;;;;3625754;39;20490;-65
2021/06/06 08:23:04;;;;;;;11.70;11.10;;;24.00;91.00;;;;;;3625908;39;20575;-65
2021/06/06 08:25:30;;;;;;;11.70;11.10;;;24.00;91.10;;;;;;3626204;39;20946;-66
2021/06/06 08:27:58;;;;;;;12.10;11.40;;;24.00;91.20;;;;;;3624960;39;20865;-65
2021/06/06 08:30:29;;;;;;;11.30;10.80;;;24.00;91.20;;;;;;3625732;39;20477;-66
2021/06/06 08:32:55;;;;;;;10.97;10.37;;;23.90;91.20;;;;;;3626209;39;20567;-65
2021/06/06 08:35:23;;;;;;;10.23;9.73;;;24.00;91.20;;;;;;3625824;39;20896;-66
2021/06/06 08:37:50;;;;;;;10.33;9.93;;;24.00;91.30;;;;;;3625156;39;20482;-66
2021/06/06 08:40:24;;;;;;;10.70;10.20;;;24.00;91.30;;;;;;3623843;39;20483;-66
2021/06/06 08:42:51;;;;;;;10.80;10.30;;;24.00;91.30;;;;;;3625615;39;20482;-66
2021/06/06 08:45:28;;;;;;;9.93;9.43;;;24.00;91.30;;;;;;3624734;39;20490;-65
2021/06/06 08:47:55;;;;;;;9.73;9.37;;;23.90;91.30;;;;;;3624804;39;20480;-65
2021/06/06 08:50:25;;;;;;;9.10;8.70;;;23.90;91.20;;;;;;3624092;39;21070;-65
2021/06/06 08:53:00;;;;;;;9.10;8.70;;;24.00;91.40;;;;;;3623707;39;20997;-65
2021/06/06 08:55:34;;;;;;;9.20;8.90;;;24.00;91.50;;;;;;3625941;39;20566;-65
2021/06/06 08:58:12;;;;;;;9.07;8.70;;;24.00;91.70;;;;;;3625348;39;20483;-65
2021/06/06 09:00:44;;;;;;;9.27;8.97;;;24.00;91.70;;;;;;3625180;39;20493;-66
2021/06/06 09:03:14;;;;;;;8.90;8.60;;;24.00;91.60;;;;;;3625647;39;21178;-65
2021/06/06 09:05:44;;;;;;;9.43;9.03;;;24.00;91.60;;;;;;3626624;39;20478;-65
2021/06/06 09:08:17;;;;;;;8.30;8.00;;;24.00;91.70;;;;;;3626915;39;21187;-65
2021/06/06 09:10:47;;;;;;;8.23;7.93;;;24.00;91.80;;;;;;3625986;39;20841;-65
2021/06/06 09:13:15;;;;;;;9.33;8.93;;;24.00;91.80;;;;;;3624958;39;20496;-66
2021/06/06 09:15:43;;;;;;;9.17;8.87;;;24.00;91.80;;;;;;3625637;39;20566;-66
2021/06/06 09:18:21;;;;;;;9.10;8.80;;;24.00;91.80;;;;;;3625094;39;20571;-66
2021/06/06 09:20:49;;;;;;;8.97;8.67;;;24.00;91.80;;;;;;3625889;39;20514;-66
2021/06/06 09:23:22;;;;;;;8.60;8.30;;;24.00;91.80;;;;;;3608080;39;20522;-66
2021/06/06 09:26:03;;;;;;;8.80;8.50;;;24.00;91.90;;;;;;3616786;39;20484;-66
2021/06/06 09:28:33;;;;;;;8.87;8.47;;;24.00;91.90;;;;;;3625941;39;20474;-66
2021/06/06 09:31:05;;;;;;;9.13;8.83;;;24.00;91.90;;;;;;3625936;39;20598;-66
2021/06/06 09:33:36;;;;;;;7.67;7.40;;;24.00;91.90;;;;;;3624955;39;20486;-66
2021/06/06 09:36:06;;;;;;;7.90;7.63;;;24.00;91.90;;;;;;3625473;39;20494;-65
2021/06/06 09:38:39;;;;;;;7.80;7.60;;;24.00;91.90;;;;;;3625933;39;20463;-64
2021/06/06 09:41:19;;;;;;;8.33;7.93;;;24.00;91.80;;;;;;3616127;39;20497;-65
2021/06/06 09:43:59;;;;;;;7.70;7.50;;;24.00;91.80;;;;;;3625939;39;20480;-65
2021/06/06 09:46:34;;;;;;;9.17;8.87;;;24.00;91.80;;;;;;3625749;39;20490;-64
2021/06/06 09:49:09;;;;;;;8.57;8.27;;;24.00;91.80;;;;;;3626403;39;20478;-65
2021/06/06 09:51:36;;;;;;;8.77;8.53;;;24.00;91.80;;;;;;3625766;39;20471;-64
2021/06/06 09:54:13;;;;;;;8.93;8.30;;;24.00;91.90;;;;;;3626226;39;20467;-65
2021/06/06 09:56:40;;;;;;;8.23;7.93;;;24.00;91.90;;;;;;3625617;39;20493;-65
2021/06/06 09:59:11;;;;;;;9.00;8.43;;;24.00;91.90;;;;;;3626295;39;20496;-64
2021/06/06 10:01:49;;;;;;;7.80;7.57;;;24.00;91.80;;;;;;3626521;39;20571;-64
2021/06/06 10:04:22;;;;;;;8.50;8.20;;;24.00;91.80;;;;;;3626530;39;20832;-64
2021/06/06 10:06:50;;;;;;;8.50;8.10;;;24.00;91.80;;;;;;3625274;39;20490;-65
2021/06/06 10:09:28;;;;;;;8.07;7.80;;;24.00;91.80;;;;;;3626373;39;20470;-65
2021/06/06 10:12:00;;;;;;;9.30;8.70;;;24.00;91.80;;;;;;3626343;39;20481;-65
2021/06/06 10:14:31;;;;;;;9.13;8.57;;;24.00;91.80;;;;;;3625940;39;20527;-64
2021/06/06 10:17:02;;;;;;;10.10;9.37;;;24.00;91.80;;;;;;3626731;39;20479;-64
2021/06/06 10:19:34;;;;;;;9.70;9.10;;;24.00;91.80;;;;;;3626359;39;20486;-64
2021/06/06 10:22:05;;;;;;;9.57;8.63;;;24.00;91.90;;;;;;3627160;39;20498;-64
2021/06/06 10:24:38;;;;;;;9.77;9.17;;;24.00;91.90;;;;;;3626629;39;20595;-65
2021/06/06 10:27:09;;;;;;;8.93;8.53;;;24.00;92.00;;;;;;3626373;39;20539;-64
2021/06/06 10:29:39;;;;;;;9.80;8.87;;;24.00;92.10;;;;;;3625179;39;20467;-64
2021/06/06 10:32:15;;;;;;;9.00;8.50;;;24.00;92.00;;;;;;3625226;39;20490;-64
2021/06/06 10:34:48;;;;;;;9.13;8.53;;;24.00;92.10;;;;;;3624583;39;20481;-64
2021/06/06 10:37:15;;;;;;;8.80;8.40;;;24.00;92.10;;;;;;3625221;39;20908;-64
2021/06/06 10:39:44;;;;;;;9.00;8.47;;;24.00;92.10;;;;;;3624213;39;20470;-64
2021/06/06 10:42:14;;;;;;;9.23;8.63;;;24.00;92.10;;;;;;3624968;39;20485;-64
2021/06/06 10:44:56;;;;;;;8.40;8.00;;;24.00;92.10;;;;;;3624153;39;20880;-64
2021/06/06 10:47:29;;;;;;;9.00;8.50;;;24.00;92.10;;;;;;3624347;39;21106;-64
2021/06/06 10:49:58;;;;;;;9.60;9.20;;;24.00;92.20;;;;;;3624792;39;20483;-65
2021/06/06 10:52:38;;;;;;;9.40;8.83;;;24.00;92.20;;;;;;3625443;39;20498;-65
2021/06/06 10:55:18;;;;;;;9.23;8.73;;;24.00;92.20;;;;;;3624916;39;20475;-64
2021/06/06 10:57:45;;;;;;;9.90;9.20;;;24.00;92.40;;;;;;3624795;39;20545;-65
2021/06/06 11:00:27;;;;;;;9.10;8.73;;;24.00;92.40;;;;;;3624731;39;20466;-65
2021/06/06 11:03:00;;;;;;;9.13;8.80;;;24.00;92.30;;;;;;3630047;39;20534;-64
2021/06/06 11:05:44;;;;;;;10.17;9.70;;;24.00;92.30;;;;;;3625811;39;20494;-64
2021/06/06 11:08:37;;;;;;;10.20;9.63;;;24.00;92.40;;;;;;3616000;39;20852;-64
2021/06/06 11:11:32;;;;;;;9.80;9.20;;;24.00;92.50;;;;;;3624676;39;20479;-64
2021/06/06 11:14:13;;;;;;;12.77;11.97;;;24.00;92.60;;;;;;3625109;39;20474;-66
2021/06/06 11:16:42;;;;;;;13.37;12.57;;;24.00;92.80;;;;;;3624567;39;20531;-65
2021/06/06 11:19:13;;;;;;;13.53;12.67;;;23.80;94.60;;;;;;3624272;39;20880;-64
2021/06/06 11:21:48;;;;;;;11.63;11.03;;;23.80;94.40;;;;;;3624064;39;20595;-64
2021/06/06 11:24:26;;;;;;;12.40;11.70;;;23.80;94.20;;;;;;3615630;39;20478;-64
2021/06/06 11:27:22;;;;;;;11.23;10.70;;;23.80;94.00;;;;;;3625316;39;20486;-64
2021/06/06 11:29:53;;;;;;;11.40;10.90;;;23.90;93.80;;;;;;3609182;39;20524;-65
2021/06/06 11:32:25;;;;;;;11.70;11.20;;;23.90;93.60;;;;;;3614780;39;20474;-66
2021/06/06 11:35:24;;;;;;;12.30;11.60;;;23.90;93.50;;;;;;3624236;39;20881;-66
2021/06/06 11:37:55;;;;;;;12.00;11.20;;;23.90;93.30;;;;;;3626401;39;20729;-65
2021/06/06 11:40:33;;;;;;;11.80;11.20;;;24.00;93.30;;;;;;3624690;39;20474;-65
2021/06/06 11:43:10;;;;;;;11.40;10.87;;;24.00;93.20;;;;;;3625535;39;20482;-66
2021/06/06 11:45:39;;;;;;;11.90;11.20;;;24.00;93.10;;;;;;3617807;39;20546;-66
2021/06/06 11:48:09;;;;;;;11.90;11.30;;;24.00;93.00;;;;;;3622605;39;20479;-66
2021/06/06 11:50:41;;;;;;;11.97;11.43;;;24.00;93.00;;;;;;3626284;39;20826;-66
2021/06/06 11:53:14;;;;;;;12.77;12.17;;;24.00;93.00;;;;;;3625922;39;20478;-65
2021/06/06 11:55:43;;;;;;;12.13;11.40;;;24.00;92.90;;;;;;3626055;39;20508;-65
2021/06/06 11:58:13;;;;;;;14.07;13.27;;;24.00;92.90;;;;;;3625326;39;20489;-66
2021/06/06 12:00:42;;;;;;;13.83;13.13;;;24.00;92.90;;;;;;3625218;39;20821;-65
2021/06/06 12:03:11;;;;;;;13.40;12.70;;;24.00;92.80;;;;;;3625493;39;20485;-66
2021/06/06 12:05:49;;;;;;;12.47;11.73;;;24.00;92.80;;;;;;3624379;39;21058;-65
2021/06/06 12:08:17;;;;;;;13.40;12.70;;;24.00;92.80;;;;;;3624992;39;20501;-65
2021/06/06 12:10:51;;;;;;;14.60;13.80;;;24.00;92.80;;;;;;3625889;39;20490;-65
2021/06/06 12:13:22;;;;;;;12.70;12.00;;;24.00;92.80;;;;;;3625409;39;20517;-65
2021/06/06 12:15:48;;;;;;;13.70;12.90;;;24.00;92.70;;;;;;3625596;39;20479;-65
2021/06/06 12:18:18;;;;;;;13.13;12.30;;;24.00;92.70;;;;;;3625334;39;20483;-65
2021/06/06 12:20:52;;;;;;;12.50;11.80;;;24.00;92.80;;;;;;3625480;39;20813;-65
2021/06/06 12:23:25;;;;;;;12.90;12.10;;;24.10;92.80;;;;;;3626462;39;20578;-66
2021/06/06 12:25:51;;;;;;;12.47;11.87;;;24.10;92.80;;;;;;3633912;39;20477;-65
2021/06/06 12:28:22;;;;;;;14.00;13.20;;;24.00;92.70;;;;;;3633987;39;20489;-66
2021/06/06 12:30:54;;;;;;;12.70;12.10;;;24.00;92.80;;;;;;3634764;39;20469;-65
2021/06/06 12:33:32;;;;;;;14.07;13.27;;;24.10;92.80;;;;;;3635625;39;20478;-65
2021/06/06 12:36:08;;;;;;;13.40;12.53;;;24.10;92.80;;;;;;3635806;39;20866;-65
2021/06/06 12:38:37;;;;;;;12.90;12.10;;;24.00;92.80;;;;;;3636251;39;20473;-65
2021/06/06 12:41:07;;;;;;;12.90;12.30;;;24.10;92.80;;;;;;3634167;39;20569;-66
2021/06/06 12:43:36;;;;;;;12.00;11.30;;;24.10;92.80;;;;;;3625678;39;20497;-65
2021/06/06 12:46:06;;;;;;;12.37;11.77;;;24.00;92.80;;;;;;3634836;39;20478;-66
2021/06/06 12:48:35;;;;;;;12.90;12.10;;;24.10;92.80;;;;;;3633732;39;20529;-65
2021/06/06 12:51:15;;;;;;;13.20;12.47;;;24.10;92.80;;;;;;3635348;39;20485;-65